Mombasa Moi International Airport


Codes: HKMO/MBA
Name: Mombasa Moi International Airport
City: Mombasa
Country: Kenya
Elevation: 200 ft.
Website:
Wikipedia:

Photos at Mombasa Moi International Airport


   Photos courtesy of SpottingLog. You can add your own sightings and photos by signing up for a free trial today.



No photos found.

Weather at Mombasa Moi International Airport


Time (UTC)DescriptionTempratureWindCloud coverageVisibilityPressureHumidity
21-Feb-2024 03:00Broken Clouds26°C4 mph, N58%10000m1009hPa81%
21-Feb-2024 06:00Broken Clouds28°C9 mph, N75%10000m1011hPa70%
21-Feb-2024 09:00Scattered Clouds33°C9 mph, NE44%10000m1010hPa53%
21-Feb-2024 12:00Few Clouds33°C16 mph, E24%10000m1006hPa54%
21-Feb-2024 15:00Clear Sky29°C13 mph, E3%10000m1007hPa72%
21-Feb-2024 18:00Clear Sky27°C13 mph, NE8%10000m1009hPa79%
21-Feb-2024 21:00Broken Clouds27°C11 mph, NE83%10000m1010hPa82%
22-Feb-2024 00:00Light Rain27°C9 mph, NE92%10000m1009hPa83%
22-Feb-2024 03:00Overcast Clouds25°C7 mph, N99%10000m1011hPa86%
22-Feb-2024 06:00Overcast Clouds29°C13 mph, N96%10000m1013hPa65%
22-Feb-2024 09:00Light Rain30°C13 mph, NE100%10000m1010hPa60%
22-Feb-2024 12:00Overcast Clouds33°C20 mph, NE95%10000m1006hPa53%
22-Feb-2024 15:00Overcast Clouds29°C18 mph, NE100%10000m1008hPa69%
22-Feb-2024 18:00Overcast Clouds28°C16 mph, NE100%10000m1010hPa82%
22-Feb-2024 21:00Overcast Clouds27°C11 mph, NE99%10000m1011hPa83%
23-Feb-2024 00:00Light Rain26°C7 mph, NE98%10000m1010hPa87%
23-Feb-2024 03:00Light Rain26°C7 mph, N52%10000m1011hPa89%
23-Feb-2024 06:00Light Rain29°C11 mph, NE57%10000m1013hPa70%
23-Feb-2024 09:00Light Rain33°C16 mph, NE30%10000m1011hPa50%
23-Feb-2024 12:00Scattered Clouds33°C18 mph, NE27%10000m1008hPa52%
23-Feb-2024 15:00Broken Clouds29°C13 mph, E72%10000m1009hPa70%
23-Feb-2024 18:00Overcast Clouds27°C9 mph, NE86%10000m1011hPa86%
23-Feb-2024 21:00Overcast Clouds27°C9 mph, NE100%10000m1012hPa88%
24-Feb-2024 00:00Light Rain26°C7 mph, NE100%10000m1010hPa89%
24-Feb-2024 03:00Light Rain26°C4 mph, NE100%10000m1011hPa89%
24-Feb-2024 06:00Moderate Rain29°C4 mph, NE100%10000m1013hPa74%
24-Feb-2024 09:00Moderate Rain29°C7 mph, NE100%10000m1013hPa66%
24-Feb-2024 12:00Moderate Rain28°C7 mph, NE100%9015m1011hPa71%
24-Feb-2024 15:00Light Rain28°C4 mph, E92%10000m1011hPa72%
24-Feb-2024 18:00Overcast Clouds26°C2 mph, SE95%10000m1013hPa80%
24-Feb-2024 21:00Overcast Clouds26°C2 mph, SW97%10000m1013hPa81%
25-Feb-2024 00:00Overcast Clouds26°C2 mph, SW99%10000m1011hPa82%
25-Feb-2024 03:00Light Rain25°C2 mph, W95%10000m1012hPa85%
25-Feb-2024 06:00Light Rain28°C2 mph, S79%10000m1013hPa71%
25-Feb-2024 09:00Overcast Clouds31°C7 mph, SE100%10000m1012hPa58%
25-Feb-2024 12:00Light Rain31°C9 mph, SE90%10000m1009hPa59%
25-Feb-2024 15:00Overcast Clouds29°C9 mph, SE99%10000m1009hPa70%
25-Feb-2024 18:00Light Rain27°C7 mph, E99%10000m1012hPa81%
25-Feb-2024 21:00Light Rain27°C4 mph, NE99%10000m1012hPa82%
26-Feb-2024 00:00Overcast Clouds27°C2 mph, N100%10000m1010hPa83%